Time;durP1;ratioP1;P1;durP2;ratioP2;P2;SDS_P1;SDS_P2;PMS_P1;PMS_P2;Temp;Humidity;BMP_temperature;BMP_pressure;BME280_temperature;BME280_humidity;BME280_pressure;Samples;Min_cycle;Max_cycle;Signal;HPM_P1;HPM_P2
2021/11/27 00:00:39;;;;;;;55.20;23.40;;;;;;;0.55;90.36;96374.30;214941;1322;22617;-76
2021/11/27 00:05:42;;;;;;;53.40;21.10;;;;;;;0.56;90.35;96375.08;215081;1321;25125;-77
2021/11/27 00:10:49;;;;;;;66.50;25.40;;;;;;;0.54;90.24;96378.05;214725;1320;23327;-76
2021/11/27 00:15:52;;;;;;;64.80;23.20;;;;;;;0.55;90.61;96375.59;214876;1316;22691;-76
2021/11/27 00:20:55;;;;;;;48.40;20.60;;;;;;;0.54;90.48;96378.42;214824;1321;25345;-76
2021/11/27 00:25:59;;;;;;;58.80;23.70;;;;;;;0.49;90.37;96378.85;215142;1322;22620;-76
2021/11/27 00:31:06;;;;;;;42.70;18.00;;;;;;;0.51;90.62;96378.23;215119;1321;22516;-76
2021/11/27 00:36:16;;;;;;;55.20;23.50;;;;;;;0.56;90.87;96377.23;214854;1322;22918;-76
2021/11/27 00:41:20;;;;;;;55.30;22.70;;;;;;;0.55;90.47;96381.05;214928;1315;22598;-76
2021/11/27 00:46:23;;;;;;;59.70;23.30;;;;;;;0.54;90.23;96386.17;214728;1323;23823;-76
2021/11/27 00:51:26;;;;;;;53.40;22.60;;;;;;;0.56;90.76;96384.31;214808;1322;24046;-76
2021/11/27 00:56:28;;;;;;;55.80;23.30;;;;;;;0.56;90.29;96387.04;214745;1323;22605;-76
2021/11/27 01:01:41;;;;;;;44.90;18.70;;;;;;;0.55;90.31;96384.67;215075;1322;24362;-76
2021/11/27 01:06:44;;;;;;;57.80;21.60;;;;;;;0.56;90.16;96385.14;215207;1320;22686;-76
2021/11/27 01:11:57;;;;;;;53.60;20.60;;;;;;;0.55;90.28;96390.10;214936;1322;22763;-76
2021/11/27 01:17:11;;;;;;;72.80;22.50;;;;;;;0.51;90.02;96391.88;214843;1322;22607;-76
2021/11/27 01:22:18;;;;;;;66.20;22.40;;;;;;;0.53;90.60;96393.77;215327;1321;22672;-76
2021/11/27 01:27:20;;;;;;;79.50;22.20;;;;;;;0.60;90.78;96386.84;214820;1322;22634;-76
2021/11/27 01:32:22;;;;;;;100.00;26.30;;;;;;;0.58;90.04;96397.86;214722;1321;22625;-76
2021/11/27 01:37:24;;;;;;;111.30;24.30;;;;;;;0.62;90.67;96396.18;214955;1321;22636;-76
2021/11/27 01:42:27;;;;;;;114.40;23.70;;;;;;;0.62;90.31;96396.56;214676;1322;22632;-76
2021/11/27 01:47:29;;;;;;;155.00;29.30;;;;;;;0.60;90.32;96403.48;214471;1320;22532;-76
2021/11/27 01:52:31;;;;;;;138.80;27.70;;;;;;;0.58;90.45;96402.23;214558;1320;22500;-76
2021/11/27 01:57:34;;;;;;;123.50;24.90;;;;;;;0.61;90.82;96408.05;214766;1319;25285;-76
2021/11/27 02:02:36;;;;;;;121.00;23.70;;;;;;;0.61;90.30;96412.02;214746;1322;22520;-76
2021/11/27 02:07:40;;;;;;;117.30;22.30;;;;;;;0.55;90.47;96419.09;214499;1321;22733;-76
2021/11/27 02:12:43;;;;;;;111.10;23.40;;;;;;;0.51;90.11;96421.45;214806;1320;22512;-76
2021/11/27 02:17:48;;;;;;;90.80;20.70;;;;;;;0.38;89.89;96431.91;214903;1321;22553;-76
2021/11/27 02:22:55;;;;;;;81.70;18.90;;;;;;;0.24;90.21;96432.20;214982;1320;22769;-76
2021/11/27 02:27:58;;;;;;;85.80;19.00;;;;;;;0.15;90.20;96432.08;214980;1321;22612;-76
2021/11/27 02:33:01;;;;;;;67.90;16.40;;;;;;;0.14;90.53;96428.88;215044;1316;22654;-76
2021/11/27 02:38:07;;;;;;;66.60;16.40;;;;;;;0.14;90.77;96427.36;214946;1320;22625;-76
2021/11/27 02:43:12;;;;;;;94.60;19.80;;;;;;;0.13;90.74;96428.16;214674;1319;24428;-76
2021/11/27 02:48:35;;;;;;;100.50;20.50;;;;;;;0.16;90.98;96436.98;214664;1321;22709;-76
2021/11/27 02:53:37;;;;;;;87.50;18.30;;;;;;;0.22;91.48;96434.60;214840;1321;23160;-76
2021/11/27 02:58:45;;;;;;;111.80;22.60;;;;;;;0.26;90.87;96434.77;214956;1321;25080;-76
2021/11/27 03:03:54;;;;;;;128.70;25.20;;;;;;;0.28;91.09;96435.16;214793;1321;22677;-76
2021/11/27 03:09:07;;;;;;;111.60;23.20;;;;;;;0.31;91.33;96437.09;214755;1321;24830;-76
2021/11/27 03:14:10;;;;;;;109.30;22.30;;;;;;;0.39;91.47;96438.38;215027;1322;22574;-76
2021/11/27 03:19:13;;;;;;;109.80;24.10;;;;;;;0.45;91.47;96437.63;215089;1320;22752;-76
2021/11/27 03:24:16;;;;;;;86.60;18.00;;;;;;;0.49;91.02;96436.39;214692;1316;22573;-76
2021/11/27 03:29:18;;;;;;;93.30;20.60;;;;;;;0.45;90.93;96435.63;214840;1320;24240;-76
2021/11/27 03:34:20;;;;;;;75.50;18.50;;;;;;;0.42;90.85;96437.04;214851;1320;22757;-76
2021/11/27 03:39:22;;;;;;;78.50;17.00;;;;;;;0.38;91.08;96435.66;214588;1321;22811;-76
2021/11/27 03:44:25;;;;;;;68.20;17.60;;;;;;;0.35;91.07;96441.86;214247;1319;25512;-76
2021/11/27 03:49:29;;;;;;;62.50;16.00;;;;;;;0.31;91.11;96450.11;214768;1322;22674;-76
2021/11/27 03:54:36;;;;;;;64.20;15.40;;;;;;;0.27;90.96;96448.98;214647;1323;24248;-76
2021/11/27 03:59:39;;;;;;;66.20;16.40;;;;;;;0.27;91.32;96454.20;214844;1322;24209;-76
2021/11/27 04:04:55;;;;;;;62.40;17.50;;;;;;;0.29;91.14;96463.08;214884;1322;24191;-74
2021/11/27 04:10:00;;;;;;;58.20;17.30;;;;;;;0.32;91.62;96465.31;214772;1321;22683;-76
2021/11/27 04:15:17;;;;;;;66.50;17.10;;;;;;;0.33;91.53;96473.24;215180;1321;22831;-76
2021/11/27 04:20:41;;;;;;;65.20;17.10;;;;;;;0.34;91.30;96478.52;214500;1323;22663;-76
2021/11/27 04:25:43;;;;;;;50.40;15.40;;;;;;;0.32;91.43;96497.55;214931;1321;22501;-75
2021/11/27 04:30:49;;;;;;;67.10;18.30;;;;;;;0.31;91.66;96499.45;214856;1322;22723;-76
2021/11/27 04:35:53;;;;;;;59.20;17.00;;;;;;;0.33;91.71;96502.33;214985;1320;24228;-76
2021/11/27 04:40:58;;;;;;;73.50;20.70;;;;;;;0.35;91.77;96500.21;214769;1320;24228;-76
2021/11/27 04:46:02;;;;;;;65.90;20.00;;;;;;;0.38;91.56;96503.77;214096;1323;22623;-76
2021/11/27 04:51:10;;;;;;;92.60;23.20;;;;;;;0.40;91.51;96492.78;214614;1322;23307;-76
2021/11/27 04:56:12;;;;;;;85.90;23.40;;;;;;;0.45;91.87;96479.73;214642;1319;22615;-76
2021/11/27 05:01:17;;;;;;;93.30;25.90;;;;;;;0.47;91.52;96487.77;214605;1322;24219;-76
2021/11/27 05:06:40;;;;;;;122.50;29.90;;;;;;;0.42;91.40;96502.25;214896;1321;23124;-75
2021/11/27 05:11:42;;;;;;;107.50;29.70;;;;;;;0.39;91.56;96503.11;214787;1313;121158;-76
2021/11/27 05:16:51;;;;;;;97.70;28.80;;;;;;;0.36;91.53;96506.42;214965;1320;22776;-75
2021/11/27 05:22:15;;;;;;;113.60;31.90;;;;;;;0.34;91.46;96504.38;214586;1319;24189;-76
2021/11/27 05:27:20;;;;;;;119.00;29.50;;;;;;;0.36;91.53;96501.61;214852;1316;22506;-76
2021/11/27 05:38:09;;;;;;;100.20;28.70;;;;;;;0.35;91.47;96501.10;214813;1320;22665;-76
2021/11/27 05:43:11;;;;;;;110.40;30.00;;;;;;;0.32;91.61;96504.98;214939;1322;24446;-76
2021/11/27 05:48:13;;;;;;;111.60;29.60;;;;;;;0.32;91.58;96511.88;214857;1320;25162;-76
2021/11/27 05:53:51;;;;;;;113.30;31.10;;;;;;;0.32;91.58;96513.71;214082;1322;24211;-76
2021/11/27 05:58:55;;;;;;;108.40;31.70;;;;;;;0.32;91.68;96513.25;215011;1320;25435;-76
2021/11/27 06:04:01;;;;;;;104.00;29.20;;;;;;;0.31;91.44;96514.84;215072;1314;25342;-76
2021/11/27 06:09:03;;;;;;;96.60;27.90;;;;;;;0.28;91.52;96514.60;215169;1320;25406;-76
2021/11/27 06:14:06;;;;;;;92.00;27.50;;;;;;;0.24;91.54;96517.33;215473;1320;22569;-76
2021/11/27 06:19:12;;;;;;;98.00;30.00;;;;;;;0.20;91.53;96527.67;215032;1322;25359;-76
2021/11/27 06:24:14;;;;;;;103.80;30.40;;;;;;;0.16;91.58;96530.02;215512;1320;22516;-77
2021/11/27 06:29:16;;;;;;;99.90;29.20;;;;;;;0.15;91.57;96541.09;214908;1321;22785;-76
2021/11/27 06:34:28;;;;;;;117.90;32.10;;;;;;;0.17;91.98;96544.48;214988;1320;24746;-76
2021/11/27 06:39:30;;;;;;;103.10;30.20;;;;;;;0.21;92.12;96553.21;214828;1321;22582;-76
2021/11/27 06:44:33;;;;;;;100.90;28.10;;;;;;;0.27;92.33;96560.38;214797;1322;22630;-77
2021/11/27 06:49:35;;;;;;;97.80;29.60;;;;;;;0.33;92.32;96563.13;214838;1321;22608;-76
2021/11/27 06:54:42;;;;;;;118.70;29.00;;;;;;;0.37;91.89;96571.61;214342;1324;23007;-76
2021/11/27 06:59:44;;;;;;;113.40;33.20;;;;;;;0.44;91.95;96578.53;214895;1318;22678;-76
2021/11/27 07:05:09;;;;;;;99.80;29.30;;;;;;;0.48;91.90;96585.96;214460;1319;22896;-76
2021/11/27 07:10:18;;;;;;;106.10;30.70;;;;;;;0.54;92.05;96592.83;214666;1321;23056;-76
2021/11/27 07:15:27;;;;;;;100.00;28.50;;;;;;;0.62;91.99;96587.23;214699;1316;22730;-76
2021/11/27 07:20:29;;;;;;;91.70;28.60;;;;;;;0.69;91.75;96591.90;214664;1320;25914;-77
2021/11/27 07:25:38;;;;;;;119.40;32.30;;;;;;;0.78;91.92;96598.73;215163;1322;25447;-77
2021/11/27 07:30:58;;;;;;;95.20;28.10;;;;;;;0.85;91.51;96606.25;215011;1321;22877;-76
2021/11/27 07:36:03;;;;;;;107.30;29.20;;;;;;;0.91;91.57;96607.20;214608;1321;24250;-76
2021/11/27 07:41:05;;;;;;;89.80;26.60;;;;;;;0.92;90.96;96616.90;214996;1322;22531;-76
2021/11/27 07:46:09;;;;;;;103.30;29.90;;;;;;;0.98;91.27;96618.52;214871;1321;22607;-76
2021/11/27 07:51:30;;;;;;;114.80;31.40;;;;;;;1.06;91.00;96622.45;214928;1316;22775;-76
2021/11/27 07:56:34;;;;;;;114.00;31.60;;;;;;;1.04;90.63;96631.39;215660;1316;22658;-76
2021/11/27 08:01:42;;;;;;;98.80;30.00;;;;;;;0.96;90.71;96640.52;215502;1315;23863;-77
2021/11/27 08:06:45;;;;;;;102.10;28.10;;;;;;;0.85;90.04;96643.79;215346;1316;24068;-77
2021/11/27 08:11:47;;;;;;;113.00;31.50;;;;;;;0.77;90.49;96635.10;215916;1316;22692;-76
2021/11/27 08:16:49;;;;;;;131.90;38.40;;;;;;;0.80;90.66;96630.34;215134;1316;24737;-77
2021/11/27 08:21:52;;;;;;;134.30;39.00;;;;;;;0.96;91.79;96635.35;215633;1316;23004;-78
2021/11/27 08:26:56;;;;;;;144.00;40.80;;;;;;;1.21;92.34;96634.42;215812;1316;22650;-78
2021/11/27 08:31:58;;;;;;;161.40;47.00;;;;;;;1.53;92.63;96641.02;215236;1318;22607;-78
2021/11/27 08:37:13;;;;;;;132.50;40.40;;;;;;;1.72;91.85;96645.63;215534;1316;22572;-78
2021/11/27 08:42:44;;;;;;;144.10;46.60;;;;;;;1.71;90.35;96648.33;215333;1315;22623;-76
2021/11/27 08:47:50;;;;;;;119.60;36.60;;;;;;;1.62;90.20;96651.71;215487;1315;24205;-76
2021/11/27 08:52:53;;;;;;;111.40;35.20;;;;;;;1.51;89.84;96650.63;215235;1316;22644;-76
2021/11/27 08:57:54;;;;;;;99.20;32.70;;;;;;;1.50;90.10;96646.58;215311;1315;22952;-76
2021/11/27 09:02:58;;;;;;;107.90;35.90;;;;;;;1.48;89.82;96654.66;215465;1315;22585;-78
2021/11/27 09:08:02;;;;;;;82.80;29.30;;;;;;;1.38;89.51;96659.05;215485;1317;25255;-77
2021/11/27 09:13:04;;;;;;;97.00;33.80;;;;;;;1.39;90.06;96654.77;215358;1315;23455;-76
2021/11/27 09:18:09;;;;;;;99.90;34.90;;;;;;;1.55;90.63;96665.79;215573;1317;22499;-77
2021/11/27 09:23:12;;;;;;;91.20;32.10;;;;;;;1.60;90.05;96671.63;215346;1316;22497;-77
2021/11/27 09:28:14;;;;;;;85.90;34.50;;;;;;;1.60;90.02;96675.55;215125;1316;24442;-77
2021/11/27 09:33:30;;;;;;;89.40;31.10;;;;;;;1.59;89.95;96670.22;215994;1316;22657;-77
2021/11/27 09:38:42;;;;;;;107.90;38.30;;;;;;;1.57;90.05;96673.27;215545;1320;22720;-78
2021/11/27 09:43:48;;;;;;;91.20;34.30;;;;;;;1.48;89.94;96671.29;215499;1316;23516;-77
2021/11/27 09:48:53;;;;;;;98.00;34.40;;;;;;;1.36;89.81;96666.83;215011;1318;25397;-77
2021/11/27 09:53:58;;;;;;;92.00;31.60;;;;;;;1.34;90.00;96666.31;215336;1316;23309;-77
2021/11/27 09:59:08;;;;;;;85.00;28.90;;;;;;;1.47;90.17;96665.60;215469;1316;23012;-77
2021/11/27 10:04:22;;;;;;;87.00;29.80;;;;;;;1.64;90.19;96662.25;215404;1320;22591;-78
2021/11/27 10:09:24;;;;;;;83.10;29.70;;;;;;;1.75;90.22;96659.12;215709;1316;22635;-78
2021/11/27 10:14:26;;;;;;;78.60;28.80;;;;;;;1.84;90.02;96662.59;215152;1316;22528;-77
2021/11/27 10:19:50;;;;;;;77.90;27.20;;;;;;;1.81;89.27;96666.06;215386;1315;23869;-78
2021/11/27 10:24:53;;;;;;;74.80;25.20;;;;;;;1.61;88.85;96669.63;215219;1320;22641;-76
2021/11/27 10:30:04;;;;;;;59.20;22.60;;;;;;;1.36;88.71;96677.95;215381;1319;25341;-78
2021/11/27 10:35:12;;;;;;;55.40;21.40;;;;;;;1.14;88.93;96676.91;215287;1318;23217;-78
2021/11/27 10:40:16;;;;;;;52.40;21.20;;;;;;;1.07;89.33;96676.97;215313;1318;23028;-78
2021/11/27 10:45:20;;;;;;;62.80;23.90;;;;;;;1.28;90.42;96678.57;214950;1317;22520;-79
2021/11/27 10:50:25;;;;;;;67.10;23.70;;;;;;;1.45;90.04;96672.22;215782;1316;24347;-76
2021/11/27 10:55:27;;;;;;;68.90;24.90;;;;;;;1.43;89.77;96676.98;215447;1316;25413;-78
2021/11/27 11:00:43;;;;;;;66.20;26.20;;;;;;;1.38;89.32;96677.10;215360;1315;24465;-77
2021/11/27 11:05:46;;;;;;;69.30;23.60;;;;;;;1.31;89.23;96680.90;214823;1316;22603;-78
2021/11/27 11:10:48;;;;;;;66.40;24.10;;;;;;;1.37;89.89;96677.79;215060;1319;22740;-78
2021/11/27 11:15:50;;;;;;;79.00;28.20;;;;;;;1.58;90.40;96677.52;215251;1318;22605;-78
2021/11/27 11:20:58;;;;;;;75.70;28.10;;;;;;;1.91;90.44;96666.80;215507;1319;22782;-78
2021/11/27 11:26:10;;;;;;;63.60;24.40;;;;;;;2.19;90.01;96667.43;215652;1316;22585;-79
2021/11/27 11:31:18;;;;;;;83.70;29.00;;;;;;;2.28;89.19;96679.30;215553;1316;22598;-79
2021/11/27 11:36:23;;;;;;;86.40;32.30;;;;;;;2.31;88.81;96686.48;215605;1316;25379;-77
2021/11/27 11:41:28;;;;;;;70.60;29.30;;;;;;;2.30;88.64;96684.55;215514;1320;25303;-77
2021/11/27 11:46:30;;;;;;;65.40;27.40;;;;;;;2.27;88.49;96684.13;215379;1316;24460;-78
2021/11/27 11:51:45;;;;;;;144.60;56.60;;;;;;;2.25;88.76;96678.96;215453;1316;23057;-78
2021/11/27 11:57:05;;;;;;;104.80;41.90;;;;;;;2.45;90.15;96679.16;216064;1316;22602;-79
2021/11/27 12:02:32;;;;;;;93.50;40.90;;;;;;;2.55;89.15;96684.73;215762;1318;25450;-77
2021/11/27 12:07:52;;;;;;;115.20;47.90;;;;;;;2.53;89.02;96691.36;214576;1320;23975;-76
2021/11/27 12:13:28;;;;;;;111.60;45.40;;;;;;;2.66;90.00;96692.34;214906;1322;25316;-76
2021/11/27 12:18:30;;;;;;;106.00;45.30;;;;;;;2.74;89.95;96682.16;214911;1320;25475;-76
2021/11/27 12:23:38;;;;;;;101.20;43.10;;;;;;;2.79;89.96;96682.61;214368;1323;22620;-77
2021/11/27 12:28:49;;;;;;;93.80;38.50;;;;;;;2.84;90.12;96682.32;214585;1322;22695;-76
2021/11/27 12:33:51;;;;;;;105.50;43.50;;;;;;;2.87;89.93;96679.42;215094;1321;22566;-77
2021/11/27 12:39:04;;;;;;;99.60;41.20;;;;;;;2.79;89.58;96686.31;215584;1320;22601;-77
2021/11/27 12:44:25;;;;;;;105.60;43.00;;;;;;;2.79;89.88;96678.28;215065;1320;22557;-76
2021/11/27 12:49:30;;;;;;;116.40;49.40;;;;;;;2.83;90.22;96678.32;214933;1322;23123;-77
2021/11/27 12:54:32;;;;;;;115.30;48.10;;;;;;;2.93;90.46;96671.92;214919;1320;22659;-78
2021/11/27 12:59:45;;;;;;;124.30;52.30;;;;;;;3.00;90.23;96669.34;214720;1324;22614;-77
2021/11/27 13:04:56;;;;;;;128.70;52.80;;;;;;;3.05;90.27;96668.02;214926;1322;22649;-77
2021/11/27 13:10:03;;;;;;;136.00;56.00;;;;;;;3.10;90.55;96668.11;214790;1318;116830;-77
2021/11/27 13:15:14;;;;;;;141.90;58.30;;;;;;;3.14;90.70;96675.38;214877;1322;25335;-77
2021/11/27 13:20:22;;;;;;;138.60;57.40;;;;;;;3.15;90.68;96672.94;214484;1324;22528;-76
2021/11/27 13:25:24;;;;;;;150.70;60.90;;;;;;;3.10;90.02;96677.20;214886;1321;22585;-76
2021/11/27 13:30:27;;;;;;;140.00;59.80;;;;;;;3.02;89.80;96676.12;215087;1316;22500;-77
2021/11/27 13:35:41;;;;;;;145.40;59.40;;;;;;;2.93;89.63;96687.05;214308;1320;24213;-78
2021/11/27 13:41:18;;;;;;;137.70;57.10;;;;;;;2.79;89.11;96688.08;214664;1316;22531;-77
2021/11/27 13:46:36;;;;;;;132.80;56.10;;;;;;;2.68;88.85;96696.96;214974;1316;22737;-77
2021/11/27 13:51:57;;;;;;;143.90;57.70;;;;;;;2.59;89.32;96695.19;215592;1320;22634;-77
2021/11/27 13:57:00;;;;;;;141.10;57.60;;;;;;;2.65;90.15;96700.50;214503;1319;22554;-77
2021/11/27 14:02:04;;;;;;;152.90;61.30;;;;;;;2.72;90.65;96702.19;214911;1320;23854;-77
2021/11/27 14:07:12;;;;;;;140.30;57.80;;;;;;;2.81;90.81;96704.23;214922;1319;23008;-78
2021/11/27 14:12:39;;;;;;;129.60;56.10;;;;;;;2.87;90.63;96708.77;215010;1322;23553;-78
2021/11/27 14:18:19;;;;;;;125.40;56.70;;;;;;;2.97;91.26;96713.33;215006;1322;22870;-78
2021/11/27 14:23:47;;;;;;;138.40;58.20;;;;;;;2.99;90.79;96719.06;214700;1324;25417;-77
2021/11/27 14:28:54;;;;;;;141.90;64.10;;;;;;;2.94;90.08;96723.31;214754;1321;24204;-77
2021/11/27 14:34:07;;;;;;;159.40;66.80;;;;;;;2.76;88.96;96728.30;214715;1316;22648;-77
2021/11/27 14:39:09;;;;;;;162.50;66.50;;;;;;;2.64;89.41;96734.98;214885;1320;25483;-77
2021/11/27 14:44:13;;;;;;;137.80;56.30;;;;;;;2.66;90.30;96721.31;214869;1320;22582;-77
2021/11/27 14:49:39;;;;;;;130.00;54.60;;;;;;;2.68;90.23;96717.38;214814;1316;23085;-77
2021/11/27 14:54:45;;;;;;;141.00;57.90;;;;;;;2.69;90.34;96718.42;214558;1320;24031;-77
2021/11/27 14:59:51;;;;;;;155.90;64.70;;;;;;;2.66;89.86;96705.92;214743;1322;22566;-77
2021/11/27 15:04:53;;;;;;;175.90;69.10;;;;;;;2.62;89.75;96693.83;214802;1316;25362;-77
2021/11/27 15:09:57;;;;;;;156.70;65.20;;;;;;;2.65;90.41;96695.58;214674;1322;22594;-77
2021/11/27 15:14:59;;;;;;;161.60;66.10;;;;;;;2.62;89.92;96703.98;215672;1317;23502;-77
2021/11/27 15:20:02;;;;;;;150.40;64.60;;;;;;;2.55;89.91;96706.28;215011;1319;23472;-77
2021/11/27 15:25:04;;;;;;;152.40;63.20;;;;;;;2.54;90.06;96705.77;214759;1322;23726;-77
2021/11/27 15:30:08;;;;;;;162.20;65.10;;;;;;;2.53;89.86;96708.28;214687;1319;26036;-77
2021/11/27 15:35:11;;;;;;;161.60;65.60;;;;;;;2.48;89.63;96715.91;215108;1321;22654;-77
2021/11/27 15:40:13;;;;;;;160.50;64.40;;;;;;;2.47;89.69;96725.27;214261;1323;24167;-77
2021/11/27 15:45:15;;;;;;;150.50;62.80;;;;;;;2.51;90.12;96716.67;214862;1322;22598;-77
2021/11/27 15:50:21;;;;;;;148.30;57.00;;;;;;;2.54;89.99;96718.52;214968;1322;22651;-79
2021/11/27 15:55:24;;;;;;;163.90;68.50;;;;;;;2.46;89.43;96717.09;215126;1322;22726;-78
2021/11/27 16:00:31;;;;;;;179.00;70.70;;;;;;;2.41;89.54;96709.30;214613;1321;22808;-77
2021/11/27 16:05:34;;;;;;;176.40;69.20;;;;;;;2.37;89.83;96708.61;214712;1317;24244;-77
2021/11/27 16:10:51;;;;;;;198.50;79.30;;;;;;;2.36;89.89;96709.42;214460;1317;24407;-77
2021/11/27 16:16:03;;;;;;;320.20;122.10;;;;;;;2.38;90.50;96716.90;214928;1321;25239;-77
2021/11/27 16:21:08;;;;;;;227.30;74.30;;;;;;;2.41;90.65;96714.42;214883;1322;23835;-78
2021/11/27 16:26:10;;;;;;;184.50;56.10;;;;;;;2.40;90.48;96714.98;214843;1320;23151;-77
2021/11/27 16:31:22;;;;;;;161.70;50.90;;;;;;;2.41;90.46;96720.55;214865;1322;23023;-77
2021/11/27 16:36:29;;;;;;;125.10;41.70;;;;;;;2.46;91.05;96725.98;214736;1322;22868;-77
2021/11/27 16:41:32;;;;;;;105.90;32.90;;;;;;;2.48;90.56;96732.51;215043;1321;22530;-77
2021/11/27 16:46:35;;;;;;;116.60;38.40;;;;;;;2.44;90.41;96742.87;215048;1316;23281;-77
2021/11/27 16:51:38;;;;;;;106.60;36.70;;;;;;;2.43;90.63;96747.48;214764;1322;23999;-77
2021/11/27 16:56:41;;;;;;;87.00;31.10;;;;;;;2.44;90.92;96753.81;214691;1316;25237;-77
2021/11/27 17:01:43;;;;;;;89.40;30.40;;;;;;;2.37;90.54;96768.06;214332;1324;25562;-78
2021/11/27 17:06:46;;;;;;;76.90;27.60;;;;;;;2.32;90.77;96771.47;214539;1322;22639;-77
2021/11/27 17:11:49;;;;;;;90.70;30.00;;;;;;;2.31;91.21;96775.43;214824;1321;22746;-78
2021/11/27 17:16:51;;;;;;;88.20;31.90;;;;;;;2.29;91.01;96789.47;215125;1320;24224;-78
2021/11/27 17:21:53;;;;;;;104.90;32.00;;;;;;;2.23;90.93;96809.18;215662;1320;22776;-78
2021/11/27 17:27:00;;;;;;;83.00;25.40;;;;;;;2.22;91.02;96806.67;214788;1319;22510;-78
2021/11/27 17:32:03;;;;;;;102.80;30.30;;;;;;;2.18;90.59;96802.80;215083;1322;24241;-79
2021/11/27 17:37:06;;;;;;;98.10;32.20;;;;;;;2.20;91.13;96809.86;215418;1322;22654;-79
2021/11/27 17:42:08;;;;;;;102.80;33.40;;;;;;;2.21;90.85;96813.33;215165;1322;22858;-79
2021/11/27 17:47:10;;;;;;;99.60;31.70;;;;;;;2.21;90.77;96809.95;215056;1322;22659;-79
2021/11/27 17:52:13;;;;;;;114.50;36.10;;;;;;;2.27;91.16;96812.27;215271;1322;22631;-79
2021/11/27 17:57:17;;;;;;;110.90;37.20;;;;;;;2.35;91.07;96817.55;215517;1318;24307;-77
2021/11/27 18:02:20;;;;;;;111.80;34.70;;;;;;;2.36;90.66;96827.42;215242;1322;22575;-78
2021/11/27 18:07:23;;;;;;;112.20;35.20;;;;;;;2.39;90.63;96825.39;215390;1317;25321;-78
2021/11/27 18:12:26;;;;;;;105.20;31.30;;;;;;;2.41;90.61;96823.15;215712;1321;24318;-78
2021/11/27 18:17:28;;;;;;;109.00;35.70;;;;;;;2.39;90.53;96830.83;215320;1317;22718;-79
2021/11/27 18:22:30;;;;;;;131.20;42.70;;;;;;;2.41;90.43;96845.66;215615;1321;24247;-79
2021/11/27 18:27:35;;;;;;;138.80;46.20;;;;;;;2.38;90.33;96859.21;215633;1319;24253;-79
2021/11/27 18:32:37;;;;;;;145.70;49.50;;;;;;;2.39;90.52;96859.58;215923;1321;22611;-79
2021/11/27 18:37:40;;;;;;;119.40;40.60;;;;;;;2.51;91.41;96866.58;215857;1316;23983;-79
2021/11/27 18:42:42;;;;;;;123.90;44.50;;;;;;;2.50;90.48;96875.69;215737;1322;22668;-79
2021/11/27 18:47:44;;;;;;;122.50;42.40;;;;;;;2.40;89.99;96884.88;215301;1316;22730;-79
2021/11/27 18:52:47;;;;;;;90.20;35.30;;;;;;;2.34;90.15;96882.61;215495;1320;22543;-79
2021/11/27 18:57:49;;;;;;;102.50;32.60;;;;;;;2.30;89.95;96887.58;215427;1322;22578;-79
2021/11/27 19:02:51;;;;;;;95.50;33.20;;;;;;;2.22;90.20;96888.66;215403;1323;22684;-79
2021/11/27 19:08:01;;;;;;;105.60;32.80;;;;;;;2.28;91.02;96884.55;215216;1322;25350;-79
2021/11/27 19:13:04;;;;;;;89.90;29.70;;;;;;;2.35;91.35;96891.55;215295;1318;25351;-79
2021/11/27 19:18:06;;;;;;;87.70;27.60;;;;;;;2.40;91.67;96895.84;215320;1324;22604;-78
2021/11/27 19:23:09;;;;;;;76.50;27.20;;;;;;;2.45;91.75;96897.73;215778;1320;22641;-79
2021/11/27 19:28:11;;;;;;;77.00;25.70;;;;;;;2.49;91.68;96894.66;215575;1320;22733;-78
2021/11/27 19:33:13;;;;;;;89.30;32.30;;;;;;;2.47;91.18;96904.80;214822;1323;22612;-77
2021/11/27 19:38:15;;;;;;;104.80;36.00;;;;;;;2.43;90.67;96905.38;215169;1319;24180;-79
2021/11/27 19:43:17;;;;;;;113.90;37.90;;;;;;;2.42;91.08;96903.95;215309;1322;23827;-79
2021/11/27 19:48:19;;;;;;;125.30;37.70;;;;;;;2.44;91.26;96902.66;215213;1316;22623;-79
2021/11/27 19:53:35;;;;;;;109.30;37.50;;;;;;;2.45;91.08;96905.81;215757;1321;25401;-79
2021/11/27 19:59:04;;;;;;;111.70;36.30;;;;;;;2.50;91.56;96903.08;215430;1316;22707;-79
2021/11/27 20:04:06;;;;;;;108.00;34.70;;;;;;;2.49;91.32;96899.58;215453;1322;22497;-79
2021/11/27 20:09:08;;;;;;;92.50;32.70;;;;;;;2.49;91.25;96890.59;215919;1321;22629;-79
2021/11/27 20:14:13;;;;;;;104.90;36.70;;;;;;;2.48;91.14;96903.31;215654;1323;23289;-79
2021/11/27 20:19:16;;;;;;;99.90;30.50;;;;;;;2.47;91.13;96901.08;214976;1323;24196;-78
2021/11/27 20:24:18;;;;;;;126.90;39.50;;;;;;;2.45;90.63;96897.67;215100;1322;22649;-79
2021/11/27 20:29:21;;;;;;;115.30;38.80;;;;;;;2.41;90.92;96897.24;215733;1319;22674;-78
2021/11/27 20:34:24;;;;;;;94.50;31.90;;;;;;;2.48;91.64;96886.80;215849;1323;22767;-79
2021/11/27 20:39:29;;;;;;;89.10;28.80;;;;;;;2.53;91.91;96883.05;215466;1323;22577;-79
2021/11/27 20:44:33;;;;;;;93.50;29.10;;;;;;;2.53;91.47;96879.52;215718;1320;22595;-78
2021/11/27 20:49:35;;;;;;;94.30;28.50;;;;;;;2.60;91.95;96879.06;215951;1321;22634;-78
2021/11/27 20:54:38;;;;;;;91.20;30.50;;;;;;;2.59;91.55;96872.20;215768;1317;22601;-78
2021/11/27 20:59:40;;;;;;;93.20;32.20;;;;;;;2.54;91.36;96866.59;215491;1316;22626;-78
2021/11/27 21:04:43;;;;;;;105.20;31.90;;;;;;;2.51;91.36;96867.11;214778;1322;25362;-79
2021/11/27 21:09:45;;;;;;;87.00;31.10;;;;;;;2.47;91.59;96869.31;214850;1320;117276;-79
2021/11/27 21:14:47;;;;;;;108.00;30.50;;;;;;;2.40;91.55;96869.04;214887;1322;25348;-79
2021/11/27 21:19:49;;;;;;;81.20;27.70;;;;;;;2.31;91.14;96863.58;215102;1322;22522;-79
2021/11/27 21:24:51;;;;;;;99.60;31.40;;;;;;;2.18;91.28;96852.15;215159;1316;24846;-79
2021/11/27 21:29:54;;;;;;;90.10;32.70;;;;;;;2.10;91.29;96855.73;215313;1323;22594;-78
2021/11/27 21:34:56;;;;;;;87.20;30.80;;;;;;;2.04;91.62;96851.51;215588;1320;22576;-79
2021/11/27 21:39:58;;;;;;;96.50;29.30;;;;;;;2.00;91.63;96850.95;215162;1318;22661;-79
2021/11/27 21:45:01;;;;;;;79.40;26.10;;;;;;;1.93;91.64;96834.56;214638;1321;22754;-78
2021/11/27 21:50:04;;;;;;;82.70;26.70;;;;;;;1.87;92.17;96831.90;214885;1322;25366;-79
2021/11/27 21:55:08;;;;;;;69.10;23.70;;;;;;;1.80;92.17;96833.46;215112;1321;22629;-78
2021/11/27 22:00:12;;;;;;;74.90;22.00;;;;;;;1.72;92.21;96828.15;215672;1320;25867;-78
2021/11/27 22:05:14;;;;;;;69.30;20.00;;;;;;;1.68;92.08;96826.65;215221;1320;22608;-78
2021/11/27 22:10:17;;;;;;;52.10;15.60;;;;;;;1.62;91.90;96812.52;214798;1321;22556;-79
2021/11/27 22:15:20;;;;;;;60.50;20.50;;;;;;;1.60;92.46;96801.02;215271;1322;22598;-78
2021/11/27 22:20:22;;;;;;;77.20;23.30;;;;;;;1.57;92.17;96799.93;215186;1321;22734;-78
2021/11/27 22:25:25;;;;;;;62.80;21.10;;;;;;;1.50;91.97;96806.96;215274;1321;22626;-79
2021/11/27 22:30:27;;;;;;;66.40;20.00;;;;;;;1.49;92.60;96825.65;214840;1316;22746;-77
2021/11/27 22:35:30;;;;;;;53.00;16.70;;;;;;;1.52;92.74;96846.52;214767;1320;22563;-77
2021/11/27 22:40:33;;;;;;;49.90;16.80;;;;;;;1.50;92.04;96859.42;214454;1319;22617;-77
2021/11/27 22:45:37;;;;;;;43.60;15.80;;;;;;;1.37;91.30;96873.19;215077;1319;22643;-78
2021/11/27 22:50:39;;;;;;;58.10;18.40;;;;;;;1.32;91.64;96897.29;215180;1319;23047;-79
2021/11/27 22:55:42;;;;;;;62.50;18.80;;;;;;;1.36;91.99;96886.59;215155;1321;22601;-78
2021/11/27 23:00:47;;;;;;;59.90;17.50;;;;;;;1.38;91.94;96900.09;215276;1315;24424;-78
2021/11/27 23:05:50;;;;;;;51.70;16.20;;;;;;;1.44;91.95;96896.83;215231;1321;22657;-78
2021/11/27 23:10:58;;;;;;;55.60;16.40;;;;;;;1.39;91.63;96899.24;214778;1322;25345;-77
2021/11/27 23:16:02;;;;;;;44.30;14.70;;;;;;;1.35;91.51;96896.41;215553;1322;23361;-79
2021/11/27 23:21:10;;;;;;;48.00;16.20;;;;;;;1.31;91.51;96899.49;215338;1316;22633;-78
2021/11/27 23:26:14;;;;;;;49.80;17.50;;;;;;;1.29;91.75;96888.86;214897;1324;22681;-78